sensor_id;sensor_type;location;lat;lon;timestamp;pressure;altitude;pressure_sealevel;temperature;humidity
11049;BME280;5577;42.706;23.160;2023-04-25T00:00:15;93378.91;;;9.69;100.00
11049;BME280;5577;42.706;23.160;2023-04-25T00:02:59;93377.03;;;9.69;100.00
11049;BME280;5577;42.706;23.160;2023-04-25T00:05:43;93370.63;;;9.70;100.00
11049;BME280;5577;42.706;23.160;2023-04-25T00:08:29;93293.41;;;9.25;100.00
11049;BME280;5577;42.706;23.160;2023-04-25T00:11:13;93361.88;;;9.66;100.00
11049;BME280;5577;42.706;23.160;2023-04-25T00:13:57;93376.59;;;9.67;100.00
11049;BME280;5577;42.706;23.160;2023-04-25T00:16:43;93394.81;;;9.72;100.00
11049;BME280;5577;42.706;23.160;2023-04-25T00:19:27;93401.06;;;9.61;100.00
11049;BME280;5577;42.706;23.160;2023-04-25T00:22:13;93411.56;;;9.57;100.00
11049;BME280;5577;42.706;23.160;2023-04-25T00:24:57;93323.97;;;9.00;100.00
11049;BME280;5577;42.706;23.160;2023-04-25T00:27:43;93402.03;;;9.49;100.00
11049;BME280;5577;42.706;23.160;2023-04-25T00:30:27;93411.47;;;9.50;100.00
11049;BME280;5577;42.706;23.160;2023-04-25T00:33:11;93394.47;;;9.48;100.00
11049;BME280;5577;42.706;23.160;2023-04-25T00:35:55;93389.94;;;9.48;100.00
11049;BME280;5577;42.706;23.160;2023-04-25T00:38:39;93396.81;;;9.53;100.00
11049;BME280;5577;42.706;23.160;2023-04-25T00:41:25;93395.00;;;9.60;100.00
11049;BME280;5577;42.706;23.160;2023-04-25T00:44:09;93398.78;;;9.59;100.00
11049;BME280;5577;42.706;23.160;2023-04-25T00:46:55;93401.94;;;9.68;100.00
11049;BME280;5577;42.706;23.160;2023-04-25T00:49:39;93358.81;;;9.35;100.00
11049;BME280;5577;42.706;23.160;2023-04-25T00:52:23;93309.13;;;8.92;100.00
11049;BME280;5577;42.706;23.160;2023-04-25T00:55:08;93386.28;;;9.56;100.00
11049;BME280;5577;42.706;23.160;2023-04-25T00:57:52;93377.19;;;9.54;100.00
11049;BME280;5577;42.706;23.160;2023-04-25T01:00:36;93384.31;;;9.50;100.00
11049;BME280;5577;42.706;23.160;2023-04-25T01:03:21;93385.00;;;9.47;100.00
11049;BME280;5577;42.706;23.160;2023-04-25T01:06:06;93384.59;;;9.45;100.00
11049;BME280;5577;42.706;23.160;2023-04-25T01:08:51;93369.78;;;9.37;100.00
11049;BME280;5577;42.706;23.160;2023-04-25T01:11:35;93364.28;;;9.23;100.00
11049;BME280;5577;42.706;23.160;2023-04-25T01:14:20;93368.06;;;9.22;100.00
11049;BME280;5577;42.706;23.160;2023-04-25T01:17:04;93371.09;;;9.24;100.00
11049;BME280;5577;42.706;23.160;2023-04-25T01:19:48;93375.88;;;9.15;100.00
11049;BME280;5577;42.706;23.160;2023-04-25T01:22:32;93364.44;;;9.07;100.00
11049;BME280;5577;42.706;23.160;2023-04-25T01:25:17;93365.09;;;9.01;100.00
11049;BME280;5577;42.706;23.160;2023-04-25T01:28:01;93358.56;;;8.95;100.00
11049;BME280;5577;42.706;23.160;2023-04-25T01:30:46;93366.13;;;8.96;100.00
11049;BME280;5577;42.706;23.160;2023-04-25T01:33:30;93369.72;;;8.84;100.00
11049;BME280;5577;42.706;23.160;2023-04-25T01:36:15;93362.38;;;8.74;100.00
11049;BME280;5577;42.706;23.160;2023-04-25T01:38:59;93323.59;;;8.52;100.00
11049;BME280;5577;42.706;23.160;2023-04-25T01:41:45;93363.34;;;8.86;100.00
11049;BME280;5577;42.706;23.160;2023-04-25T01:44:30;93360.75;;;8.89;100.00
11049;BME280;5577;42.706;23.160;2023-04-25T01:47:13;93355.34;;;8.82;100.00
11049;BME280;5577;42.706;23.160;2023-04-25T01:49:58;93363.34;;;8.86;100.00
11049;BME280;5577;42.706;23.160;2023-04-25T01:52:42;93292.41;;;8.35;100.00
11049;BME280;5577;42.706;23.160;2023-04-25T01:55:26;93344.53;;;8.64;100.00
11049;BME280;5577;42.706;23.160;2023-04-25T01:58:09;93358.41;;;8.61;100.00
11049;BME280;5577;42.706;23.160;2023-04-25T02:00:56;93271.00;;;7.99;100.00
11049;BME280;5577;42.706;23.160;2023-04-25T02:03:40;93352.94;;;8.51;100.00
11049;BME280;5577;42.706;23.160;2023-04-25T02:06:24;93348.91;;;8.57;100.00
11049;BME280;5577;42.706;23.160;2023-04-25T02:09:08;93350.66;;;8.49;100.00
11049;BME280;5577;42.706;23.160;2023-04-25T02:11:52;93346.28;;;8.57;100.00
11049;BME280;5577;42.706;23.160;2023-04-25T02:14:36;93346.31;;;8.83;100.00
11049;BME280;5577;42.706;23.160;2023-04-25T02:17:20;93343.22;;;9.26;100.00
11049;BME280;5577;42.706;23.160;2023-04-25T02:20:05;93339.75;;;9.48;100.00
11049;BME280;5577;42.706;23.160;2023-04-25T02:22:50;93340.31;;;9.64;100.00
11049;BME280;5577;42.706;23.160;2023-04-25T02:25:34;93332.13;;;9.73;100.00
11049;BME280;5577;42.706;23.160;2023-04-25T02:28:18;93319.06;;;9.83;100.00
11049;BME280;5577;42.706;23.160;2023-04-25T02:31:02;93309.66;;;9.86;100.00
11049;BME280;5577;42.706;23.160;2023-04-25T02:33:47;93239.59;;;9.36;100.00
11049;BME280;5577;42.706;23.160;2023-04-25T02:36:31;93291.91;;;9.86;100.00
11049;BME280;5577;42.706;23.160;2023-04-25T02:39:18;93301.78;;;9.89;100.00
11049;BME280;5577;42.706;23.160;2023-04-25T02:42:02;93294.66;;;9.97;100.00
11049;BME280;5577;42.706;23.160;2023-04-25T02:44:46;93210.19;;;9.38;100.00
11049;BME280;5577;42.706;23.160;2023-04-25T02:47:30;93240.97;;;9.56;100.00
11049;BME280;5577;42.706;23.160;2023-04-25T02:50:15;93287.84;;;9.96;100.00
11049;BME280;5577;42.706;23.160;2023-04-25T02:52:58;93232.38;;;9.63;100.00
11049;BME280;5577;42.706;23.160;2023-04-25T02:55:43;93294.22;;;9.91;100.00
11049;BME280;5577;42.706;23.160;2023-04-25T02:58:27;93291.03;;;10.08;100.00
11049;BME280;5577;42.706;23.160;2023-04-25T03:01:11;93275.22;;;10.12;100.00
11049;BME280;5577;42.706;23.160;2023-04-25T03:03:55;93283.94;;;10.16;100.00
11049;BME280;5577;42.706;23.160;2023-04-25T03:06:39;93252.88;;;10.06;100.00
11049;BME280;5577;42.706;23.160;2023-04-25T03:09:23;93272.66;;;10.22;100.00
11049;BME280;5577;42.706;23.160;2023-04-25T03:12:07;93277.19;;;10.22;100.00
11049;BME280;5577;42.706;23.160;2023-04-25T03:14:51;93277.25;;;10.25;100.00
11049;BME280;5577;42.706;23.160;2023-04-25T03:17:34;93276.09;;;10.26;100.00
11049;BME280;5577;42.706;23.160;2023-04-25T03:20:18;93195.59;;;9.84;100.00
11049;BME280;5577;42.706;23.160;2023-04-25T03:23:02;93270.94;;;10.37;100.00
11049;BME280;5577;42.706;23.160;2023-04-25T03:25:46;93256.59;;;10.41;100.00
11049;BME280;5577;42.706;23.160;2023-04-25T03:28:30;93216.28;;;10.11;100.00
11049;BME280;5577;42.706;23.160;2023-04-25T03:31:14;93241.78;;;10.33;100.00
11049;BME280;5577;42.706;23.160;2023-04-25T03:33:58;93217.91;;;10.26;100.00
11049;BME280;5577;42.706;23.160;2023-04-25T03:36:43;93217.19;;;10.29;100.00
11049;BME280;5577;42.706;23.160;2023-04-25T03:39:26;93242.31;;;10.53;100.00
11049;BME280;5577;42.706;23.160;2023-04-25T03:42:10;93207.38;;;10.30;100.00
11049;BME280;5577;42.706;23.160;2023-04-25T03:44:54;93240.44;;;10.53;100.00
11049;BME280;5577;42.706;23.160;2023-04-25T03:47:38;93250.00;;;10.65;100.00
11049;BME280;5577;42.706;23.160;2023-04-25T03:50:22;93265.59;;;10.77;100.00
11049;BME280;5577;42.706;23.160;2023-04-25T03:53:06;93262.63;;;10.85;100.00
11049;BME280;5577;42.706;23.160;2023-04-25T03:55:50;93262.28;;;10.90;100.00
11049;BME280;5577;42.706;23.160;2023-04-25T03:58:35;93289.16;;;10.96;100.00
11049;BME280;5577;42.706;23.160;2023-04-25T04:01:19;93260.06;;;10.99;100.00
11049;BME280;5577;42.706;23.160;2023-04-25T04:04:03;93247.94;;;10.95;100.00
11049;BME280;5577;42.706;23.160;2023-04-25T04:06:47;93258.59;;;11.05;100.00
11049;BME280;5577;42.706;23.160;2023-04-25T04:09:31;93244.97;;;11.00;100.00
11049;BME280;5577;42.706;23.160;2023-04-25T04:12:15;93236.59;;;10.98;100.00
11049;BME280;5577;42.706;23.160;2023-04-25T04:14:59;93241.13;;;10.94;100.00
11049;BME280;5577;42.706;23.160;2023-04-25T04:17:42;93249.44;;;10.96;100.00
11049;BME280;5577;42.706;23.160;2023-04-25T04:20:27;93251.34;;;10.95;100.00
11049;BME280;5577;42.706;23.160;2023-04-25T04:23:11;93232.00;;;10.84;100.00
11049;BME280;5577;42.706;23.160;2023-04-25T04:25:55;93219.88;;;10.83;100.00
11049;BME280;5577;42.706;23.160;2023-04-25T04:28:39;93246.06;;;10.95;100.00
11049;BME280;5577;42.706;23.160;2023-04-25T04:31:23;93259.25;;;10.92;100.00
11049;BME280;5577;42.706;23.160;2023-04-25T04:34:07;93228.16;;;10.78;100.00
11049;BME280;5577;42.706;23.160;2023-04-25T04:36:51;93247.59;;;11.00;100.00
11049;BME280;5577;42.706;23.160;2023-04-25T04:39:36;93182.19;;;10.46;100.00
11049;BME280;5577;42.706;23.160;2023-04-25T04:42:20;93255.91;;;11.02;100.00
11049;BME280;5577;42.706;23.160;2023-04-25T04:45:05;93214.88;;;10.75;100.00
11049;BME280;5577;42.706;23.160;2023-04-25T04:47:49;93174.69;;;10.55;100.00
11049;BME280;5577;42.706;23.160;2023-04-25T04:50:33;93245.69;;;10.97;100.00
11049;BME280;5577;42.706;23.160;2023-04-25T04:53:19;93263.94;;;11.12;100.00
11049;BME280;5577;42.706;23.160;2023-04-25T04:56:03;93270.41;;;11.18;100.00
11049;BME280;5577;42.706;23.160;2023-04-25T04:58:47;93248.75;;;11.02;100.00
11049;BME280;5577;42.706;23.160;2023-04-25T05:01:32;93270.31;;;11.01;100.00
11049;BME280;5577;42.706;23.160;2023-04-25T05:04:18;93295.53;;;10.88;100.00
11049;BME280;5577;42.706;23.160;2023-04-25T05:07:03;93306.53;;;10.90;100.00
11049;BME280;5577;42.706;23.160;2023-04-25T05:09:46;93320.16;;;10.88;100.00
11049;BME280;5577;42.706;23.160;2023-04-25T05:12:30;93307.28;;;10.90;100.00
11049;BME280;5577;42.706;23.160;2023-04-25T05:15:14;93285.13;;;10.62;100.00
11049;BME280;5577;42.706;23.160;2023-04-25T05:17:58;93310.94;;;10.75;100.00
11049;BME280;5577;42.706;23.160;2023-04-25T05:20:42;93306.81;;;10.78;100.00
11049;BME280;5577;42.706;23.160;2023-04-25T05:23:26;93311.00;;;10.82;100.00
11049;BME280;5577;42.706;23.160;2023-04-25T05:26:11;93317.50;;;10.88;100.00
11049;BME280;5577;42.706;23.160;2023-04-25T05:28:58;93292.47;;;10.82;100.00
11049;BME280;5577;42.706;23.160;2023-04-25T05:31:41;93297.56;;;11.05;100.00
11049;BME280;5577;42.706;23.160;2023-04-25T05:34:25;93282.25;;;10.81;100.00
11049;BME280;5577;42.706;23.160;2023-04-25T05:37:09;93289.94;;;10.93;100.00
11049;BME280;5577;42.706;23.160;2023-04-25T05:39:54;93290.44;;;11.16;100.00
11049;BME280;5577;42.706;23.160;2023-04-25T05:42:38;93292.06;;;11.34;100.00
11049;BME280;5577;42.706;23.160;2023-04-25T05:45:22;93283.06;;;11.46;100.00
11049;BME280;5577;42.706;23.160;2023-04-25T05:48:05;93277.81;;;11.53;100.00
11049;BME280;5577;42.706;23.160;2023-04-25T05:50:49;93280.84;;;11.58;100.00
11049;BME280;5577;42.706;23.160;2023-04-25T05:53:35;93263.00;;;11.52;100.00
11049;BME280;5577;42.706;23.160;2023-04-25T05:56:19;93274.41;;;11.59;100.00
11049;BME280;5577;42.706;23.160;2023-04-25T05:59:03;93288.53;;;11.78;100.00
11049;BME280;5577;42.706;23.160;2023-04-25T06:01:47;93278.66;;;11.75;100.00
11049;BME280;5577;42.706;23.160;2023-04-25T06:04:31;93245.59;;;11.51;100.00
11049;BME280;5577;42.706;23.160;2023-04-25T06:07:15;93274.94;;;11.83;100.00
11049;BME280;5577;42.706;23.160;2023-04-25T06:09:59;93281.41;;;11.92;100.00
11049;BME280;5577;42.706;23.160;2023-04-25T06:12:44;93281.41;;;12.03;100.00
11049;BME280;5577;42.706;23.160;2023-04-25T06:15:28;93278.41;;;12.08;100.00
11049;BME280;5577;42.706;23.160;2023-04-25T06:18:13;93268.91;;;11.96;100.00
11049;BME280;5577;42.706;23.160;2023-04-25T06:20:57;93278.84;;;12.31;100.00
11049;BME280;5577;42.706;23.160;2023-04-25T06:23:41;93287.59;;;12.52;100.00
11049;BME280;5577;42.706;23.160;2023-04-25T06:26:25;93279.28;;;12.68;100.00
11049;BME280;5577;42.706;23.160;2023-04-25T06:29:09;93278.53;;;12.85;100.00
11049;BME280;5577;42.706;23.160;2023-04-25T06:31:53;93260.31;;;12.80;100.00
11049;BME280;5577;42.706;23.160;2023-04-25T06:34:37;93285.78;;;13.02;100.00
11049;BME280;5577;42.706;23.160;2023-04-25T06:37:21;93288.78;;;13.04;100.00
11049;BME280;5577;42.706;23.160;2023-04-25T06:40:05;93281.56;;;13.08;100.00
11049;BME280;5577;42.706;23.160;2023-04-25T06:42:50;93277.03;;;13.08;100.00
11049;BME280;5577;42.706;23.160;2023-04-25T06:45:33;93278.53;;;13.23;100.00
11049;BME280;5577;42.706;23.160;2023-04-25T06:48:17;93280.38;;;13.47;100.00
11049;BME280;5577;42.706;23.160;2023-04-25T06:51:01;93278.47;;;13.44;100.00
11049;BME280;5577;42.706;23.160;2023-04-25T06:53:46;93280.75;;;13.46;100.00
11049;BME280;5577;42.706;23.160;2023-04-25T06:56:30;93275.38;;;13.67;100.00
11049;BME280;5577;42.706;23.160;2023-04-25T06:59:14;93281.50;;;13.57;100.00
11049;BME280;5577;42.706;23.160;2023-04-25T07:01:58;93278.09;;;13.46;100.00
11049;BME280;5577;42.706;23.160;2023-04-25T07:04:42;93284.91;;;13.57;100.00
11049;BME280;5577;42.706;23.160;2023-04-25T07:07:26;93285.22;;;13.73;100.00
11049;BME280;5577;42.706;23.160;2023-04-25T07:10:10;93293.63;;;13.68;100.00
11049;BME280;5577;42.706;23.160;2023-04-25T07:12:54;93278.84;;;13.60;100.00
11049;BME280;5577;42.706;23.160;2023-04-25T07:15:38;93274.63;;;13.66;100.00
11049;BME280;5577;42.706;23.160;2023-04-25T07:18:22;93259.84;;;13.51;100.00
11049;BME280;5577;42.706;23.160;2023-04-25T07:21:06;93271.22;;;13.66;100.00
11049;BME280;5577;42.706;23.160;2023-04-25T07:23:50;93274.22;;;13.75;100.00
11049;BME280;5577;42.706;23.160;2023-04-25T07:26:34;93280.97;;;13.97;100.00
11049;BME280;5577;42.706;23.160;2023-04-25T07:29:18;93245.94;;;14.12;100.00
11049;BME280;5577;42.706;23.160;2023-04-25T07:32:02;93264.91;;;14.25;100.00
11049;BME280;5577;42.706;23.160;2023-04-25T07:34:46;93258.38;;;14.33;100.00
11049;BME280;5577;42.706;23.160;2023-04-25T07:37:30;93262.56;;;14.34;100.00
11049;BME280;5577;42.706;23.160;2023-04-25T07:40:14;93259.16;;;14.85;100.00
11049;BME280;5577;42.706;23.160;2023-04-25T07:43:01;93245.34;;;15.00;100.00
11049;BME280;5577;42.706;23.160;2023-04-25T07:45:46;93265.66;;;15.28;100.00
11049;BME280;5577;42.706;23.160;2023-04-25T07:48:30;93255.09;;;15.14;100.00
11049;BME280;5577;42.706;23.160;2023-04-25T07:51:14;93248.47;;;15.36;100.00
11049;BME280;5577;42.706;23.160;2023-04-25T07:53:58;93239.78;;;15.95;100.00
11049;BME280;5577;42.706;23.160;2023-04-25T07:56:43;93255.09;;;15.14;100.00
11049;BME280;5577;42.706;23.160;2023-04-25T07:59:27;93223.50;;;15.12;100.00
11049;BME280;5577;42.706;23.160;2023-04-25T08:02:11;93250.69;;;15.44;100.00
11049;BME280;5577;42.706;23.160;2023-04-25T08:04:55;93250.47;;;15.21;100.00
11049;BME280;5577;42.706;23.160;2023-04-25T08:07:40;93247.03;;;15.21;100.00
11049;BME280;5577;42.706;23.160;2023-04-25T08:10:25;93248.28;;;15.13;100.00
11049;BME280;5577;42.706;23.160;2023-04-25T08:13:08;93257.81;;;15.10;100.00
11049;BME280;5577;42.706;23.160;2023-04-25T08:15:52;93252.63;;;15.33;100.00
11049;BME280;5577;42.706;23.160;2023-04-25T08:18:36;93267.53;;;15.31;100.00
11049;BME280;5577;42.706;23.160;2023-04-25T08:21:21;93252.09;;;15.12;100.00
11049;BME280;5577;42.706;23.160;2023-04-25T08:24:05;93253.88;;;14.23;100.00
11049;BME280;5577;42.706;23.160;2023-04-25T08:26:49;93248.94;;;14.25;100.00
11049;BME280;5577;42.706;23.160;2023-04-25T08:29:34;93258.59;;;14.60;100.00
11049;BME280;5577;42.706;23.160;2023-04-25T08:32:19;93258.50;;;14.74;100.00
11049;BME280;5577;42.706;23.160;2023-04-25T08:35:03;93247.09;;;15.17;100.00
11049;BME280;5577;42.706;23.160;2023-04-25T08:37:47;93230.47;;;15.77;100.00
11049;BME280;5577;42.706;23.160;2023-04-25T08:40:38;93236.94;;;16.66;100.00
11049;BME280;5577;42.706;23.160;2023-04-25T08:43:23;93230.03;;;17.38;100.00
11049;BME280;5577;42.706;23.160;2023-04-25T08:46:07;93235.56;;;17.50;92.13
11049;BME280;5577;42.706;23.160;2023-04-25T08:48:53;93241.28;;;17.29;87.56
11049;BME280;5577;42.706;23.160;2023-04-25T08:51:44;93244.97;;;16.89;87.85
11049;BME280;5577;42.706;23.160;2023-04-25T08:54:30;93178.97;;;17.09;81.53
11049;BME280;5577;42.706;23.160;2023-04-25T08:57:15;93241.41;;;18.04;80.15
11049;BME280;5577;42.706;23.160;2023-04-25T09:00:00;93245.25;;;17.64;74.44
11049;BME280;5577;42.706;23.160;2023-04-25T09:02:45;93230.44;;;17.79;75.87
11049;BME280;5577;42.706;23.160;2023-04-25T09:05:30;93232.50;;;17.71;74.70
11049;BME280;5577;42.706;23.160;2023-04-25T09:08:15;93229.44;;;17.27;69.48
11049;BME280;5577;42.706;23.160;2023-04-25T09:10:58;93246.03;;;16.95;72.35
11049;BME280;5577;42.706;23.160;2023-04-25T09:13:42;93239.19;;;16.94;74.17
11049;BME280;5577;42.706;23.160;2023-04-25T09:16:26;93217.63;;;17.04;69.06
11049;BME280;5577;42.706;23.160;2023-04-25T09:19:24;93222.50;;;16.63;64.87
11049;BME280;5577;42.706;23.160;2023-04-25T09:22:08;93231.09;;;17.21;66.01
11049;BME280;5577;42.706;23.160;2023-04-25T09:24:52;93236.13;;;17.38;68.49
11049;BME280;5577;42.706;23.160;2023-04-25T09:27:50;93210.56;;;17.14;58.59
11049;BME280;5577;42.706;23.160;2023-04-25T09:30:36;93234.41;;;17.28;63.12
11049;BME280;5577;42.706;23.160;2023-04-25T09:33:20;93225.03;;;17.40;63.21
11049;BME280;5577;42.706;23.160;2023-04-25T09:36:11;93223.06;;;17.63;59.68
11049;BME280;5577;42.706;23.160;2023-04-25T09:38:55;93236.47;;;17.83;61.08
11049;BME280;5577;42.706;23.160;2023-04-25T09:41:40;93228.09;;;17.61;60.52
11049;BME280;5577;42.706;23.160;2023-04-25T09:44:24;93230.97;;;18.29;58.56
11049;BME280;5577;42.706;23.160;2023-04-25T09:47:10;93196.25;;;18.89;54.96
11049;BME280;5577;42.706;23.160;2023-04-25T09:49:55;93226.78;;;19.11;53.76
11049;BME280;5577;42.706;23.160;2023-04-25T09:52:39;93229.03;;;18.81;52.70
11049;BME280;5577;42.706;23.160;2023-04-25T09:55:23;93229.59;;;19.20;50.86
11049;BME280;5577;42.706;23.160;2023-04-25T09:58:09;93231.06;;;18.93;50.91
11049;BME280;5577;42.706;23.160;2023-04-25T10:00:59;93231.66;;;18.13;52.53
11049;BME280;5577;42.706;23.160;2023-04-25T10:03:45;93243.31;;;17.45;55.04
11049;BME280;5577;42.706;23.160;2023-04-25T10:06:31;93237.31;;;17.80;56.93
11049;BME280;5577;42.706;23.160;2023-04-25T10:09:19;93241.28;;;17.91;58.07
11049;BME280;5577;42.706;23.160;2023-04-25T10:12:04;93239.00;;;18.64;56.62
11049;BME280;5577;42.706;23.160;2023-04-25T10:14:48;93237.41;;;18.83;53.86
11049;BME280;5577;42.706;23.160;2023-04-25T10:17:33;93237.38;;;17.96;54.33
11049;BME280;5577;42.706;23.160;2023-04-25T10:20:19;93242.25;;;17.39;54.06
11049;BME280;5577;42.706;23.160;2023-04-25T10:23:14;93237.53;;;16.77;56.42
11049;BME280;5577;42.706;23.160;2023-04-25T10:25:59;93236.47;;;16.71;60.48
11049;BME280;5577;42.706;23.160;2023-04-25T10:29:02;93231.22;;;16.67;60.98
11049;BME280;5577;42.706;23.160;2023-04-25T10:31:46;93210.47;;;16.98;61.94
11049;BME280;5577;42.706;23.160;2023-04-25T10:37:24;93233.03;;;19.37;57.41
11049;BME280;5577;42.706;23.160;2023-04-25T10:40:09;93225.03;;;20.60;54.46
11049;BME280;5577;42.706;23.160;2023-04-25T10:42:54;93223.31;;;22.27;51.62
11049;BME280;5577;42.706;23.160;2023-04-25T10:45:52;93213.00;;;24.17;47.80
11049;BME280;5577;42.706;23.160;2023-04-25T10:48:36;93201.97;;;25.45;41.70
11049;BME280;5577;42.706;23.160;2023-04-25T10:51:25;93209.47;;;25.27;38.43
11049;BME280;5577;42.706;23.160;2023-04-25T10:54:11;93204.91;;;26.47;36.31
11049;BME280;5577;42.706;23.160;2023-04-25T10:56:58;93196.03;;;26.61;37.76
11049;BME280;5577;42.706;23.160;2023-04-25T10:59:42;93190.22;;;24.92;42.10
11049;BME280;5577;42.706;23.160;2023-04-25T11:02:27;93171.75;;;21.95;45.16
11049;BME280;5577;42.706;23.160;2023-04-25T11:05:22;93197.47;;;20.31;48.25
11049;BME280;5577;42.706;23.160;2023-04-25T11:08:11;93197.28;;;19.11;54.53
11049;BME280;5577;42.706;23.160;2023-04-25T11:10:55;93197.09;;;18.54;59.51
11049;BME280;5577;42.706;23.160;2023-04-25T11:13:39;93201.03;;;17.36;65.07
11049;BME280;5577;42.706;23.160;2023-04-25T11:16:24;93199.03;;;16.74;68.65
11049;BME280;5577;42.706;23.160;2023-04-25T11:19:11;93207.38;;;16.23;75.86
11049;BME280;5577;42.706;23.160;2023-04-25T11:21:59;93179.34;;;15.82;83.71
11049;BME280;5577;42.706;23.160;2023-04-25T11:24:45;93196.63;;;15.70;95.87
11049;BME280;5577;42.706;23.160;2023-04-25T11:27:29;93209.97;;;14.96;100.00
11049;BME280;5577;42.706;23.160;2023-04-25T11:30:14;93223.41;;;14.34;100.00
11049;BME280;5577;42.706;23.160;2023-04-25T11:32:59;93216.66;;;14.12;100.00
11049;BME280;5577;42.706;23.160;2023-04-25T11:35:43;93206.06;;;15.78;100.00
11049;BME280;5577;42.706;23.160;2023-04-25T11:38:28;93196.75;;;19.61;84.68
11049;BME280;5577;42.706;23.160;2023-04-25T11:41:12;93188.97;;;20.95;73.20
11049;BME280;5577;42.706;23.160;2023-04-25T11:43:56;93193.00;;;21.59;64.22
11049;BME280;5577;42.706;23.160;2023-04-25T11:46:40;93179.72;;;20.21;58.68
11049;BME280;5577;42.706;23.160;2023-04-25T11:49:30;93175.31;;;18.68;62.16
11049;BME280;5577;42.706;23.160;2023-04-25T11:52:14;93187.22;;;18.16;66.30
11049;BME280;5577;42.706;23.160;2023-04-25T11:54:58;93188.09;;;18.29;71.67
11049;BME280;5577;42.706;23.160;2023-04-25T11:57:43;93183.28;;;21.74;56.60
11049;BME280;5577;42.706;23.160;2023-04-25T12:00:28;93171.31;;;22.97;49.30
11049;BME280;5577;42.706;23.160;2023-04-25T12:03:12;93171.56;;;22.81;46.08
11049;BME280;5577;42.706;23.160;2023-04-25T12:06:02;93171.94;;;24.36;45.73
11049;BME280;5577;42.706;23.160;2023-04-25T12:09:03;93180.00;;;22.22;48.10
11049;BME280;5577;42.706;23.160;2023-04-25T12:11:52;93175.22;;;19.48;52.85
11049;BME280;5577;42.706;23.160;2023-04-25T12:14:36;93215.63;;;19.13;58.08
11049;BME280;5577;42.706;23.160;2023-04-25T12:17:22;93198.75;;;18.13;63.94
11049;BME280;5577;42.706;23.160;2023-04-25T12:20:09;93224.34;;;17.36;72.54
11049;BME280;5577;42.706;23.160;2023-04-25T12:22:53;93222.41;;;16.14;84.05
11049;BME280;5577;42.706;23.160;2023-04-25T12:25:42;93226.75;;;15.37;100.00
11049;BME280;5577;42.706;23.160;2023-04-25T12:28:26;93227.69;;;14.73;100.00
11049;BME280;5577;42.706;23.160;2023-04-25T12:31:11;93229.31;;;14.60;100.00
11049;BME280;5577;42.706;23.160;2023-04-25T12:33:56;93184.69;;;14.19;100.00
11049;BME280;5577;42.706;23.160;2023-04-25T12:36:41;93216.19;;;14.28;100.00
11049;BME280;5577;42.706;23.160;2023-04-25T12:39:25;93226.91;;;14.14;100.00
11049;BME280;5577;42.706;23.160;2023-04-25T12:42:09;93232.28;;;14.03;100.00
11049;BME280;5577;42.706;23.160;2023-04-25T12:44:55;93237.34;;;13.77;100.00
11049;BME280;5577;42.706;23.160;2023-04-25T12:47:39;93242.72;;;13.63;100.00
11049;BME280;5577;42.706;23.160;2023-04-25T12:50:23;93235.22;;;13.33;100.00
11049;BME280;5577;42.706;23.160;2023-04-25T12:53:07;93243.97;;;13.23;100.00
11049;BME280;5577;42.706;23.160;2023-04-25T12:55:51;93259.19;;;12.95;100.00
11049;BME280;5577;42.706;23.160;2023-04-25T12:58:35;93255.38;;;12.71;100.00
11049;BME280;5577;42.706;23.160;2023-04-25T13:01:20;93248.94;;;12.58;100.00
11049;BME280;5577;42.706;23.160;2023-04-25T13:04:04;93249.69;;;12.48;100.00
11049;BME280;5577;42.706;23.160;2023-04-25T13:06:48;93260.66;;;12.50;100.00
11049;BME280;5577;42.706;23.160;2023-04-25T13:09:32;93264.81;;;12.34;100.00
11049;BME280;5577;42.706;23.160;2023-04-25T13:12:17;93263.69;;;12.24;100.00
11049;BME280;5577;42.706;23.160;2023-04-25T13:15:01;93261.00;;;12.10;100.00
11049;BME280;5577;42.706;23.160;2023-04-25T13:17:45;93262.50;;;12.11;100.00
11049;BME280;5577;42.706;23.160;2023-04-25T13:20:29;93263.19;;;11.87;100.00
11049;BME280;5577;42.706;23.160;2023-04-25T13:23:13;93265.47;;;11.89;100.00
11049;BME280;5577;42.706;23.160;2023-04-25T13:25:57;93259.03;;;11.83;100.00
11049;BME280;5577;42.706;23.160;2023-04-25T13:28:41;93262.06;;;11.92;100.00
11049;BME280;5577;42.706;23.160;2023-04-25T13:31:25;93252.22;;;11.92;100.00
11049;BME280;5577;42.706;23.160;2023-04-25T13:34:09;93254.06;;;11.78;100.00
11049;BME280;5577;42.706;23.160;2023-04-25T13:36:54;93258.72;;;12.09;100.00
11049;BME280;5577;42.706;23.160;2023-04-25T13:39:38;93251.56;;;13.18;100.00
11049;BME280;5577;42.706;23.160;2023-04-25T13:42:23;93238.94;;;14.43;100.00
11049;BME280;5577;42.706;23.160;2023-04-25T13:45:07;93231.88;;;15.55;100.00
11049;BME280;5577;42.706;23.160;2023-04-25T13:47:51;93185.81;;;15.81;100.00
11049;BME280;5577;42.706;23.160;2023-04-25T13:50:35;93215.88;;;16.15;100.00
11049;BME280;5577;42.706;23.160;2023-04-25T13:53:19;93207.41;;;16.50;100.00
11049;BME280;5577;42.706;23.160;2023-04-25T13:56:04;93206.16;;;17.70;100.00
11049;BME280;5577;42.706;23.160;2023-04-25T13:58:52;93199.22;;;17.53;100.00
11049;BME280;5577;42.706;23.160;2023-04-25T14:01:36;93191.59;;;16.85;100.00
11049;BME280;5577;42.706;23.160;2023-04-25T14:04:20;93189.38;;;16.01;100.00
11049;BME280;5577;42.706;23.160;2023-04-25T14:07:04;93194.63;;;16.08;100.00
11049;BME280;5577;42.706;23.160;2023-04-25T14:09:48;93194.09;;;15.90;100.00
11049;BME280;5577;42.706;23.160;2023-04-25T14:12:32;93192.34;;;16.06;100.00
11049;BME280;5577;42.706;23.160;2023-04-25T14:15:17;93188.09;;;16.12;100.00
11049;BME280;5577;42.706;23.160;2023-04-25T14:18:01;93191.53;;;15.83;100.00
11049;BME280;5577;42.706;23.160;2023-04-25T14:20:46;93158.59;;;15.63;100.00
11049;BME280;5577;42.706;23.160;2023-04-25T14:23:30;93192.75;;;16.05;100.00
11049;BME280;5577;42.706;23.160;2023-04-25T14:26:14;93191.22;;;16.34;100.00
11049;BME280;5577;42.706;23.160;2023-04-25T14:28:58;93186.59;;;16.64;100.00